Time;durP1;ratioP1;P1;durP2;ratioP2;P2;SDS_P1;SDS_P2;PMS_P1;PMS_P2;Temp;Humidity;BMP_temperature;BMP_pressure;BME280_temperature;BME280_humidity;BME280_pressure;Samples;Min_cycle;Max_cycle;Signal;HPM_P1;HPM_P2
2021/09/26 00:00:06;;;;;;;9.63;7.13;;;14.70;1.00;;;;;;4973541;28;20259;-63
2021/09/26 00:02:34;;;;;;;9.20;6.97;;;14.80;99.90;;;;;;4973397;28;20208;-63
2021/09/26 00:05:01;;;;;;;7.73;6.77;;;14.80;99.90;;;;;;4973058;28;20255;-63
2021/09/26 00:07:28;;;;;;;7.70;6.27;;;14.80;99.90;;;;;;4973331;28;20240;-63
2021/09/26 00:09:54;;;;;;;8.37;5.90;;;14.80;99.90;;;;;;4973506;28;20258;-63
2021/09/26 00:12:21;;;;;;;7.80;5.93;;;14.80;1.00;;;;;;4973391;28;20208;-63
2021/09/26 00:14:48;;;;;;;7.57;5.97;;;14.90;1.00;;;;;;4972750;28;20231;-63
2021/09/26 00:17:14;;;;;;;8.10;5.33;;;14.90;1.00;;;;;;4973008;28;20783;-63
2021/09/26 00:19:42;;;;;;;8.00;5.27;;;14.90;1.00;;;;;;4972777;28;20208;-63
2021/09/26 00:22:09;;;;;;;7.20;5.30;;;15.00;1.00;;;;;;4973127;28;20263;-63
2021/09/26 00:24:36;;;;;;;8.47;5.43;;;15.00;99.90;;;;;;4973005;28;20212;-63
2021/09/26 00:27:03;;;;;;;7.40;5.30;;;15.00;1.00;;;;;;4973257;28;20216;-63
2021/09/26 00:29:30;;;;;;;7.40;5.37;;;15.10;1.00;;;;;;4973206;28;20211;-63
2021/09/26 00:31:57;;;;;;;6.10;5.27;;;15.10;99.90;;;;;;4973030;28;20211;-63
2021/09/26 00:34:23;;;;;;;5.83;4.80;;;15.10;99.90;;;;;;4972978;28;20625;-63
2021/09/26 00:36:51;;;;;;;7.30;5.47;;;15.10;99.90;;;;;;4972580;28;20278;-64
2021/09/26 00:39:18;;;;;;;6.40;5.50;;;15.20;99.90;;;;;;4973196;28;20271;-63
2021/09/26 00:41:45;;;;;;;7.20;5.07;;;15.20;99.90;;;;;;4973019;28;20208;-63
2021/09/26 00:44:11;;;;;;;6.20;5.17;;;15.20;99.90;;;;;;4972912;28;20703;-63
2021/09/26 00:46:38;;;;;;;7.00;4.77;;;15.20;1.00;;;;;;4972615;28;20204;-63
2021/09/26 00:49:05;;;;;;;5.13;4.63;;;15.20;1.00;;;;;;4972828;28;20574;-63
2021/09/26 00:51:31;;;;;;;5.80;4.47;;;15.20;1.00;;;;;;4972985;28;20578;-63
2021/09/26 00:53:59;;;;;;;5.70;5.07;;;15.30;1.00;;;;;;4972796;28;20562;-63
2021/09/26 00:56:26;;;;;;;6.10;4.70;;;15.40;1.00;;;;;;4972492;28;20232;-63
2021/09/26 00:58:54;;;;;;;6.73;4.73;;;15.50;1.00;;;;;;4972660;28;20236;-63
2021/09/26 01:01:20;;;;;;;8.60;4.60;;;15.60;1.00;;;;;;4972816;28;20243;-63
2021/09/26 01:03:47;;;;;;;6.20;5.13;;;15.60;99.90;;;;;;4972836;28;20220;-63
2021/09/26 01:06:27;;;;;;;6.50;4.80;;;15.70;99.90;;;;;;4972403;28;20259;-64
2021/09/26 01:09:07;;;;;;;7.10;4.63;;;15.70;99.90;;;;;;4972895;28;20631;-63
2021/09/26 01:11:45;;;;;;;6.63;5.13;;;15.80;99.90;;;;;;4972757;28;20208;-63
2021/09/26 01:14:22;;;;;;;7.17;4.30;;;15.80;99.90;;;;;;4972512;28;20692;-63
2021/09/26 01:17:00;;;;;;;5.70;4.53;;;15.80;99.90;;;;;;4972318;28;20228;-63
2021/09/26 01:19:40;;;;;;;5.07;4.40;;;15.80;99.90;;;;;;4972904;28;20219;-63
2021/09/26 01:22:11;;;;;;;7.60;4.67;;;15.90;99.90;;;;;;4972423;28;20212;-63
2021/09/26 01:25:08;;;;;;;5.63;4.53;;;15.90;99.90;;;;;;4972636;28;20271;-63
2021/09/26 01:28:02;;;;;;;5.20;4.60;;;15.90;99.90;;;;;;4972886;28;20323;-63
2021/09/26 01:30:41;;;;;;;7.60;5.27;;;15.90;99.90;;;;;;4973810;28;20212;-63
2021/09/26 01:33:16;;;;;;;11.43;4.90;;;16.00;99.90;;;;;;4976183;28;20220;-63
2021/09/26 01:35:54;;;;;;;6.57;4.97;;;16.00;99.90;;;;;;4975656;28;20224;-63
2021/09/26 01:38:27;;;;;;;7.90;4.63;;;16.10;99.90;;;;;;4975540;28;20287;-63
2021/09/26 01:40:59;;;;;;;6.47;4.80;;;16.10;99.90;;;;;;4975867;28;20217;-63
2021/09/26 01:43:31;;;;;;;6.90;4.70;;;16.20;99.90;;;;;;4976194;28;20574;-61
2021/09/26 01:46:05;;;;;;;8.80;4.40;;;16.20;99.90;;;;;;4975521;28;20266;-61
2021/09/26 01:48:39;;;;;;;7.73;4.93;;;16.30;99.90;;;;;;4975855;28;20278;-62
2021/09/26 01:51:07;;;;;;;7.37;5.40;;;16.30;59.90;;;;;;4975658;28;20212;-60
2021/09/26 01:53:36;;;;;;;8.27;5.17;;;16.40;52.40;;;;;;4975488;28;20236;-62
2021/09/26 01:56:05;;;;;;;8.23;4.77;;;16.50;35.50;;;;;;4975221;28;20596;-63
2021/09/26 01:58:33;;;;;;;6.77;4.70;;;16.50;39.00;;;;;;4975739;28;20420;-63
2021/09/26 02:01:01;;;;;;;7.47;4.80;;;16.60;6.40;;;;;;4975561;28;20212;-63
2021/09/26 02:03:28;;;;;;;5.20;4.63;;;16.70;1.00;;;;;;4975557;28;20583;-63
2021/09/26 02:05:56;;;;;;;7.30;4.63;;;16.80;1.00;;;;;;4975004;28;20209;-63
2021/09/26 02:08:23;;;;;;;7.43;4.43;;;16.80;1.00;;;;;;4975147;28;20686;-63
2021/09/26 02:10:50;;;;;;;6.50;5.33;;;16.80;1.00;;;;;;4975464;28;20205;-63
2021/09/26 02:13:18;;;;;;;5.90;4.93;;;16.80;1.00;;;;;;4975282;28;20212;-63
2021/09/26 02:15:45;;;;;;;7.70;4.87;;;16.70;7.60;;;;;;4974889;28;20228;-63
2021/09/26 02:18:14;;;;;;;5.17;4.37;;;16.80;1.00;;;;;;4975150;28;20232;-63
2021/09/26 02:20:42;;;;;;;8.00;5.43;;;16.80;1.00;;;;;;4974962;28;20208;-63
2021/09/26 02:23:09;;;;;;;5.63;4.70;;;16.80;7.40;;;;;;4975342;28;20212;-63
2021/09/26 02:25:39;;;;;;;5.77;4.80;;;16.80;3.80;;;;;;4974821;28;20212;-63
2021/09/26 02:28:07;;;;;;;6.77;4.90;;;16.80;8.40;;;;;;4974977;28;20229;-61
2021/09/26 02:30:34;;;;;;;6.20;4.60;;;16.80;8.70;;;;;;4975039;28;20295;-60
2021/09/26 02:33:01;;;;;;;7.93;5.30;;;16.80;8.20;;;;;;4974849;28;20212;-61
2021/09/26 02:35:30;;;;;;;10.63;4.80;;;16.90;8.30;;;;;;4974243;28;20216;-63
2021/09/26 02:37:57;;;;;;;5.10;4.47;;;16.90;12.40;;;;;;4974906;28;20298;-63
2021/09/26 02:40:24;;;;;;;5.20;4.50;;;16.90;8.30;;;;;;4974488;28;20627;-63
2021/09/26 02:43:00;;;;;;;6.33;4.90;;;16.90;8.30;;;;;;4974646;28;20208;-63
2021/09/26 02:45:33;;;;;;;9.17;5.13;;;17.00;1.00;;;;;;4974244;28;20212;-63
2021/09/26 02:48:06;;;;;;;6.43;4.40;;;17.10;1.00;;;;;;4974295;28;20319;-63
2021/09/26 02:50:34;;;;;;;6.10;4.37;;;17.10;1.00;;;;;;4974695;28;20266;-62
2021/09/26 02:53:03;;;;;;;5.00;4.50;;;17.10;1.00;;;;;;4974626;28;20207;-63
2021/09/26 02:55:32;;;;;;;5.30;4.80;;;17.10;1.00;;;;;;4974074;28;20215;-63
2021/09/26 02:58:00;;;;;;;6.77;4.97;;;17.20;1.00;;;;;;4974022;28;20243;-63
2021/09/26 03:00:33;;;;;;;5.87;4.53;;;17.20;1.00;;;;;;4974218;28;20205;-63
2021/09/26 03:03:11;;;;;;;5.10;4.60;;;17.20;1.00;;;;;;4974447;28;20643;-63
2021/09/26 03:05:39;;;;;;;5.80;5.03;;;17.20;8.20;;;;;;4973933;28;20299;-63
2021/09/26 03:08:06;;;;;;;5.93;4.40;;;17.20;3.90;;;;;;4974145;28;20732;-63
2021/09/26 03:10:34;;;;;;;6.70;5.00;;;17.20;8.50;;;;;;4974039;28;20212;-61
2021/09/26 03:13:00;;;;;;;5.83;4.50;;;17.20;21.80;;;;;;4973989;28;20267;-61
2021/09/26 03:15:27;;;;;;;6.60;4.77;;;17.20;43.70;;;;;;4973423;28;20747;-64
2021/09/26 03:17:54;;;;;;;5.60;4.47;;;17.20;49.50;;;;;;4973972;28;20232;-63
2021/09/26 03:20:21;;;;;;;5.73;5.13;;;17.20;93.00;;;;;;4973848;28;20899;-63
2021/09/26 03:22:50;;;;;;;5.53;4.80;;;17.20;53.80;;;;;;4973954;28;20270;-63
2021/09/26 03:25:18;;;;;;;7.17;4.97;;;17.20;88.30;;;;;;4973419;28;20211;-63
2021/09/26 03:27:45;;;;;;;6.13;4.70;;;17.20;92.60;;;;;;4973941;28;20224;-62
2021/09/26 03:30:13;;;;;;;6.07;4.93;;;17.10;99.90;;;;;;4973679;28;20626;-63
2021/09/26 03:32:39;;;;;;;5.70;5.10;;;17.10;99.90;;;;;;4973637;28;20275;-62
2021/09/26 03:35:08;;;;;;;7.23;5.73;;;17.10;99.90;;;;;;4973265;28;20211;-62
2021/09/26 03:37:35;;;;;;;5.70;4.77;;;17.10;99.90;;;;;;4973480;28;20298;-62
2021/09/26 03:40:05;;;;;;;7.57;5.23;;;17.10;99.90;;;;;;4973599;28;20212;-62
2021/09/26 03:42:31;;;;;;;7.83;5.23;;;17.10;99.90;;;;;;4973857;28;20204;-62
2021/09/26 03:44:59;;;;;;;6.07;4.50;;;17.10;99.90;;;;;;4973329;28;20252;-61
2021/09/26 03:47:25;;;;;;;8.17;5.10;;;17.10;99.90;;;;;;4973528;28;20231;-63
2021/09/26 03:49:52;;;;;;;12.07;7.40;;;17.10;99.90;;;;;;4973327;28;20732;-62
2021/09/26 03:52:19;;;;;;;7.13;5.73;;;17.10;99.90;;;;;;4972824;28;20728;-63
2021/09/26 03:54:46;;;;;;;6.50;5.50;;;17.10;99.90;;;;;;4972930;28;20212;-63
2021/09/26 03:57:14;;;;;;;7.30;4.97;;;17.10;99.90;;;;;;4972947;28;20728;-63
2021/09/26 03:59:41;;;;;;;5.47;4.87;;;17.10;99.90;;;;;;4973357;28;20231;-63
2021/09/26 04:02:08;;;;;;;7.43;4.70;;;17.10;99.90;;;;;;4973119;28;20669;-61
2021/09/26 04:04:35;;;;;;;8.60;5.47;;;17.10;99.90;;;;;;4972871;28;20204;-63
2021/09/26 04:07:02;;;;;;;7.47;4.83;;;17.10;99.90;;;;;;4972763;28;20251;-63
2021/09/26 04:09:29;;;;;;;7.90;4.90;;;17.10;99.90;;;;;;4973361;28;20259;-63
2021/09/26 04:11:55;;;;;;;7.53;4.93;;;17.10;99.90;;;;;;4973136;28;20223;-61
2021/09/26 04:14:23;;;;;;;8.50;5.20;;;17.20;99.90;;;;;;4973177;28;20212;-61
2021/09/26 04:16:52;;;;;;;7.27;4.93;;;17.20;99.90;;;;;;4972491;28;20220;-63
2021/09/26 04:19:19;;;;;;;6.23;5.23;;;17.20;99.90;;;;;;4972820;28;20208;-62
2021/09/26 04:21:46;;;;;;;8.27;5.20;;;17.10;99.90;;;;;;4972850;28;20591;-63
2021/09/26 04:24:13;;;;;;;6.97;4.80;;;17.20;99.90;;;;;;4973160;28;20204;-63
2021/09/26 04:26:40;;;;;;;10.30;5.93;;;17.20;99.90;;;;;;4972610;28;20665;-64
2021/09/26 04:29:07;;;;;;;5.30;4.80;;;17.20;99.90;;;;;;4972834;28;20231;-63
2021/09/26 04:31:35;;;;;;;7.90;5.10;;;17.20;99.90;;;;;;4972943;28;20216;-63
2021/09/26 04:34:02;;;;;;;6.27;5.23;;;17.20;99.90;;;;;;4972741;28;20209;-63
2021/09/26 04:36:28;;;;;;;6.97;5.47;;;17.10;99.90;;;;;;4972558;28;20228;-63
2021/09/26 04:38:55;;;;;;;6.87;4.90;;;17.10;99.90;;;;;;4973000;28;20651;-63
2021/09/26 04:41:22;;;;;;;7.90;5.23;;;17.10;99.90;;;;;;4972875;28;20215;-62
2021/09/26 04:43:48;;;;;;;7.83;5.37;;;17.10;99.90;;;;;;4972820;28;20212;-63
2021/09/26 04:46:15;;;;;;;7.20;4.90;;;17.10;99.90;;;;;;4972387;28;20201;-63
2021/09/26 04:48:43;;;;;;;8.80;5.40;;;17.10;99.90;;;;;;4972637;28;20303;-63
2021/09/26 04:51:10;;;;;;;6.20;5.30;;;17.20;99.90;;;;;;4972915;28;20348;-63
2021/09/26 04:53:37;;;;;;;5.80;5.00;;;17.20;99.90;;;;;;4972733;28;20696;-63
2021/09/26 04:56:04;;;;;;;7.70;5.77;;;17.10;99.90;;;;;;4972628;28;20209;-63
2021/09/26 04:58:30;;;;;;;6.47;5.47;;;17.10;99.90;;;;;;4972615;28;20236;-63
2021/09/26 05:00:57;;;;;;;7.07;5.37;;;17.20;99.90;;;;;;4972570;28;20212;-62
2021/09/26 05:03:24;;;;;;;5.67;5.07;;;17.20;99.90;;;;;;4972735;28;20220;-63
2021/09/26 05:05:52;;;;;;;9.00;4.90;;;17.20;99.90;;;;;;4975909;28;20255;-63
2021/09/26 05:08:18;;;;;;;8.73;5.50;;;17.20;99.90;;;;;;4976216;28;20227;-63
2021/09/26 05:10:45;;;;;;;6.67;4.70;;;17.20;99.90;;;;;;4976385;28;20205;-61
2021/09/26 05:13:12;;;;;;;9.13;5.00;;;17.20;1.00;;;;;;4976225;28;20204;-63
2021/09/26 05:15:38;;;;;;;6.07;5.23;;;17.20;1.00;;;;;;4975473;28;20208;-63
2021/09/26 05:18:05;;;;;;;9.13;6.07;;;17.20;1.00;;;;;;4976300;28;20236;-63
2021/09/26 05:20:32;;;;;;;5.67;5.07;;;17.30;1.00;;;;;;4976077;28;20235;-63
2021/09/26 05:23:00;;;;;;;6.63;5.40;;;17.20;1.00;;;;;;4976157;28;20216;-61
2021/09/26 05:25:27;;;;;;;7.93;5.47;;;17.20;1.00;;;;;;4975531;28;20209;-63
2021/09/26 05:27:54;;;;;;;5.80;5.20;;;17.20;1.00;;;;;;4975875;28;20721;-61
2021/09/26 05:30:20;;;;;;;5.60;5.00;;;17.20;1.00;;;;;;4975672;28;20212;-63
2021/09/26 05:32:47;;;;;;;6.83;5.50;;;17.20;1.00;;;;;;4975995;28;20212;-63
2021/09/26 05:35:14;;;;;;;6.70;5.53;;;17.20;81.10;;;;;;4975621;28;20212;-63
2021/09/26 05:37:40;;;;;;;6.90;5.40;;;17.20;99.90;;;;;;4975780;28;20241;-63
2021/09/26 05:40:10;;;;;;;6.57;5.00;;;17.20;99.90;;;;;;4975860;28;20259;-63
2021/09/26 05:42:36;;;;;;;8.20;5.70;;;17.20;99.90;;;;;;4975591;28;20255;-63
2021/09/26 05:45:03;;;;;;;8.90;5.63;;;17.20;99.90;;;;;;4975159;28;20275;-63
2021/09/26 05:47:30;;;;;;;11.77;5.90;;;17.20;99.90;;;;;;4975801;28;20228;-63
2021/09/26 05:49:56;;;;;;;7.43;5.83;;;17.20;99.90;;;;;;4975697;28;20278;-63
2021/09/26 05:52:23;;;;;;;10.77;5.97;;;17.20;99.90;;;;;;4975602;28;20738;-63
2021/09/26 05:54:50;;;;;;;7.17;5.47;;;17.30;99.90;;;;;;4975129;28;20220;-61
2021/09/26 05:57:18;;;;;;;5.73;5.13;;;17.30;1.00;;;;;;4975143;28;20295;-63
2021/09/26 05:59:44;;;;;;;8.87;5.50;;;17.30;1.00;;;;;;4975451;28;20208;-63
2021/09/26 06:02:12;;;;;;;9.03;5.93;;;17.40;1.00;;;;;;4975561;28;20267;-64
2021/09/26 06:04:39;;;;;;;7.03;5.10;;;17.40;39.00;;;;;;4974984;28;20636;-62
2021/09/26 06:07:06;;;;;;;6.30;5.40;;;17.40;99.90;;;;;;4975110;28;20200;-63
2021/09/26 06:09:33;;;;;;;8.63;5.77;;;17.40;99.90;;;;;;4975231;28;20673;-63
2021/09/26 06:12:00;;;;;;;8.40;5.40;;;17.50;99.90;;;;;;4975078;28;20208;-63
2021/09/26 06:14:28;;;;;;;8.80;5.57;;;17.50;99.90;;;;;;4975496;28;20211;-63
2021/09/26 06:16:55;;;;;;;6.37;5.27;;;17.50;99.90;;;;;;4974238;28;20232;-63
2021/09/26 06:19:21;;;;;;;6.73;5.77;;;17.60;99.90;;;;;;4975269;28;20231;-63
2021/09/26 06:21:48;;;;;;;7.03;5.60;;;17.60;99.90;;;;;;4974910;28;20208;-64
2021/09/26 06:24:15;;;;;;;6.70;5.60;;;17.60;1.00;;;;;;4975043;28;20213;-63
2021/09/26 06:26:42;;;;;;;8.50;5.93;;;17.60;1.00;;;;;;4974903;28;20868;-63
2021/09/26 06:29:09;;;;;;;6.87;5.60;;;17.60;99.90;;;;;;4974975;28;20279;-63
2021/09/26 06:31:37;;;;;;;6.93;5.50;;;17.70;99.90;;;;;;4975076;28;20204;-63
2021/09/26 06:34:04;;;;;;;9.27;6.37;;;17.70;99.90;;;;;;4974869;28;20216;-64
2021/09/26 06:36:31;;;;;;;6.70;5.33;;;17.70;99.90;;;;;;4974284;28;20212;-64
2021/09/26 06:38:58;;;;;;;7.50;5.47;;;17.70;99.90;;;;;;4974340;28;20228;-63
2021/09/26 06:41:24;;;;;;;8.60;5.40;;;17.80;99.90;;;;;;4974958;28;20212;-63
2021/09/26 06:43:52;;;;;;;7.33;5.90;;;17.90;87.30;;;;;;4974789;28;20266;-63
2021/09/26 06:46:19;;;;;;;7.97;5.60;;;17.90;82.30;;;;;;4974100;28;20671;-63
2021/09/26 06:48:47;;;;;;;7.70;5.37;;;17.90;82.30;;;;;;4974613;28;20224;-63
2021/09/26 06:51:14;;;;;;;7.23;6.03;;;17.80;99.90;;;;;;4974577;28;20208;-62
2021/09/26 06:53:41;;;;;;;6.40;5.67;;;17.80;92.60;;;;;;4974397;28;20212;-62
2021/09/26 06:56:08;;;;;;;7.10;5.70;;;17.70;1.00;;;;;;4974199;28;20212;-62
2021/09/26 06:58:35;;;;;;;6.97;5.87;;;17.80;99.90;;;;;;4974394;28;20240;-61
2021/09/26 07:01:01;;;;;;;6.37;5.53;;;17.90;99.90;;;;;;4974383;28;20677;-62
2021/09/26 07:03:28;;;;;;;7.50;6.07;;;17.90;99.90;;;;;;4974224;28;20760;-62
2021/09/26 07:05:56;;;;;;;6.80;5.97;;;18.00;99.90;;;;;;4973815;28;20205;-62
2021/09/26 07:08:23;;;;;;;8.07;6.20;;;18.10;1.00;;;;;;4973757;28;20225;-62
2021/09/26 07:10:50;;;;;;;7.70;6.43;;;18.10;99.90;;;;;;4974334;28;20208;-62
2021/09/26 07:13:17;;;;;;;8.70;6.17;;;18.10;99.90;;;;;;4974209;28;20208;-63
2021/09/26 07:15:44;;;;;;;9.63;6.67;;;18.20;1.00;;;;;;4973853;28;20267;-63
2021/09/26 07:18:10;;;;;;;8.80;6.37;;;18.30;99.90;;;;;;4973947;28;20652;-62
2021/09/26 07:20:37;;;;;;;7.03;5.93;;;18.30;99.90;;;;;;4973742;28;20259;-62
2021/09/26 07:23:05;;;;;;;7.50;6.13;;;18.30;99.90;;;;;;4974208;28;20208;-62
2021/09/26 07:25:33;;;;;;;7.60;6.43;;;18.40;99.90;;;;;;4973631;28;20263;-62
2021/09/26 07:28:00;;;;;;;7.27;6.20;;;18.40;99.90;;;;;;4972988;28;20220;-63
2021/09/26 07:30:27;;;;;;;8.23;6.50;;;18.50;99.90;;;;;;4973771;28;20208;-63
2021/09/26 07:32:53;;;;;;;7.93;5.87;;;18.60;99.90;;;;;;4973756;28;20209;-63
2021/09/26 07:35:20;;;;;;;7.07;6.37;;;18.70;45.50;;;;;;4973276;28;20673;-63
2021/09/26 07:37:47;;;;;;;8.00;6.40;;;18.90;1.00;;;;;;4973755;28;20232;-62
2021/09/26 07:40:15;;;;;;;6.37;5.73;;;19.00;99.90;;;;;;4973758;28;20216;-62
2021/09/26 07:42:42;;;;;;;6.93;6.23;;;19.10;55.50;;;;;;4973442;28;20211;-62
2021/09/26 07:45:12;;;;;;;6.47;5.87;;;19.10;99.90;;;;;;4973581;28;20204;-62
2021/09/26 07:47:39;;;;;;;9.50;6.20;;;19.10;81.70;;;;;;4973266;28;20228;-62
2021/09/26 07:50:06;;;;;;;6.87;6.10;;;19.10;93.30;;;;;;4973334;28;20220;-63
2021/09/26 07:52:33;;;;;;;9.00;6.33;;;19.20;99.90;;;;;;4973259;28;20677;-62
2021/09/26 07:55:00;;;;;;;7.53;6.27;;;19.30;99.90;;;;;;4959989;28;20687;-62
2021/09/26 07:57:28;;;;;;;6.90;6.20;;;19.40;99.90;;;;;;4938305;29;20233;-63
2021/09/26 07:59:55;;;;;;;7.80;6.30;;;19.50;99.90;;;;;;4934952;29;20623;-64
2021/09/26 08:02:21;;;;;;;7.00;6.30;;;19.60;1.00;;;;;;4934890;29;20832;-64
2021/09/26 08:04:48;;;;;;;10.03;6.27;;;19.70;1.00;;;;;;4934541;29;20666;-63
2021/09/26 08:07:15;;;;;;;8.50;6.23;;;19.80;1.00;;;;;;4934847;29;20714;-64
2021/09/26 08:09:41;;;;;;;7.27;6.10;;;19.90;1.00;;;;;;4934809;29;20690;-63
2021/09/26 08:12:09;;;;;;;7.10;6.07;;;19.90;1.00;;;;;;4935165;29;20638;-63
2021/09/26 08:14:37;;;;;;;8.03;6.20;;;20.00;1.00;;;;;;4934336;29;20217;-64
2021/09/26 08:17:04;;;;;;;7.60;6.30;;;20.00;1.00;;;;;;4934692;29;20273;-64
2021/09/26 08:19:31;;;;;;;6.70;6.10;;;20.00;1.00;;;;;;4940972;28;20271;-64
2021/09/26 08:21:57;;;;;;;7.03;6.13;;;20.00;1.00;;;;;;4952890;29;20216;-66
2021/09/26 08:24:24;;;;;;;6.70;6.07;;;20.00;1.00;;;;;;4952999;29;20209;-68
2021/09/26 08:26:51;;;;;;;9.70;6.63;;;20.00;1.00;;;;;;4952982;29;20209;-67
2021/09/26 08:29:17;;;;;;;10.07;6.60;;;19.80;1.00;;;;;;4953428;29;20217;-67
2021/09/26 08:31:45;;;;;;;9.63;6.40;;;19.80;94.00;;;;;;4953491;29;20220;-66
2021/09/26 08:34:12;;;;;;;8.40;6.77;;;19.80;99.90;;;;;;4953503;29;20209;-65
2021/09/26 08:36:39;;;;;;;7.70;6.37;;;19.80;99.90;;;;;;4953162;29;20212;-66
2021/09/26 08:39:06;;;;;;;10.03;7.17;;;20.00;10.30;;;;;;4954054;28;20740;-65
2021/09/26 08:41:33;;;;;;;8.83;6.83;;;20.10;99.90;;;;;;4956660;29;20216;-65
2021/09/26 08:44:00;;;;;;;7.63;6.27;;;20.20;1.00;;;;;;4956743;29;20212;-66
2021/09/26 08:46:27;;;;;;;7.10;6.30;;;20.20;1.00;;;;;;4956423;29;20220;-65
2021/09/26 08:48:57;;;;;;;9.33;6.60;;;20.40;1.00;;;;;;4956857;29;20233;-65
2021/09/26 08:51:24;;;;;;;7.07;6.37;;;20.50;1.00;;;;;;4956964;29;20272;-66
2021/09/26 08:53:50;;;;;;;7.53;5.90;;;20.60;99.90;;;;;;4957098;29;20216;-65
2021/09/26 08:56:18;;;;;;;8.20;6.60;;;20.60;99.90;;;;;;4956444;29;20228;-65
2021/09/26 08:58:44;;;;;;;7.60;6.83;;;20.70;99.90;;;;;;4956821;29;20264;-65
2021/09/26 09:01:11;;;;;;;7.67;6.87;;;20.80;99.90;;;;;;4956776;29;20649;-64
2021/09/26 09:03:39;;;;;;;8.13;6.10;;;20.70;99.90;;;;;;4956688;29;20213;-63
2021/09/26 09:06:07;;;;;;;8.73;6.97;;;20.70;99.90;;;;;;4956419;29;20312;-64
2021/09/26 09:08:39;;;;;;;7.20;6.50;;;20.60;99.90;;;;;;4956694;29;20225;-65
2021/09/26 09:11:06;;;;;;;7.97;6.47;;;20.60;99.90;;;;;;4956179;29;20209;-67
2021/09/26 09:13:36;;;;;;;9.47;6.83;;;20.70;99.90;;;;;;4956843;29;20272;-67
2021/09/26 09:16:05;;;;;;;10.00;7.47;;;20.70;99.90;;;;;;4955543;29;20213;-67
2021/09/26 09:18:42;;;;;;;11.83;7.33;;;20.80;99.90;;;;;;4956410;29;20243;-67
2021/09/26 09:21:21;;;;;;;9.77;7.10;;;20.80;99.90;;;;;;4956059;29;20244;-66
2021/09/26 09:23:49;;;;;;;9.50;6.70;;;20.90;99.90;;;;;;4956816;29;20464;-67
2021/09/26 09:26:16;;;;;;;8.43;6.60;;;21.00;99.90;;;;;;4955997;29;20643;-68
2021/09/26 09:28:43;;;;;;;9.13;6.37;;;21.10;99.90;;;;;;4956537;29;20264;-68
2021/09/26 09:31:11;;;;;;;10.27;6.87;;;21.10;99.90;;;;;;4956136;29;20213;-67
2021/09/26 09:33:39;;;;;;;9.90;7.60;;;21.20;99.90;;;;;;4956269;29;20213;-67
2021/09/26 09:36:20;;;;;;;8.83;7.27;;;21.30;87.60;;;;;;4955898;29;20670;-67
2021/09/26 09:38:48;;;;;;;8.53;6.13;;;21.40;81.20;;;;;;4956315;29;20328;-67
2021/09/26 09:41:31;;;;;;;8.37;6.90;;;21.40;99.90;;;;;;4956188;29;20220;-66
2021/09/26 09:43:57;;;;;;;8.50;6.60;;;21.50;11.40;;;;;;4956183;29;20605;-70
2021/09/26 09:46:30;;;;;;;7.63;6.43;;;21.60;11.70;;;;;;4955832;29;20264;-70
2021/09/26 09:49:09;;;;;;;6.97;6.17;;;21.70;1.00;;;;;;4956138;29;20768;-66
2021/09/26 09:51:38;;;;;;;7.17;6.43;;;21.80;1.00;;;;;;4954631;28;20216;-66
2021/09/26 09:54:07;;;;;;;9.87;5.70;;;21.90;1.00;;;;;;4956140;29;20797;-66
2021/09/26 09:56:41;;;;;;;9.83;6.43;;;22.00;1.00;;;;;;4955454;29;20225;-64
2021/09/26 09:59:08;;;;;;;7.77;6.60;;;22.00;1.00;;;;;;4955358;29;20240;-65
2021/09/26 10:01:36;;;;;;;9.73;7.10;;;22.00;1.00;;;;;;4955362;29;20216;-64
2021/09/26 10:04:05;;;;;;;10.37;6.47;;;22.10;1.00;;;;;;4956069;29;20209;-64
2021/09/26 10:06:36;;;;;;;7.63;6.20;;;22.00;1.00;;;;;;4955462;29;20256;-64
2021/09/26 10:09:30;;;;;;;10.27;6.40;;;22.10;1.00;;;;;;4955421;29;20881;-65
2021/09/26 10:11:58;;;;;;;7.70;6.20;;;22.10;1.00;;;;;;4940622;29;20565;-65
2021/09/26 10:14:28;;;;;;;6.97;5.90;;;22.20;1.00;;;;;;4955551;29;20260;-65
2021/09/26 10:16:56;;;;;;;8.10;5.97;;;22.30;1.00;;;;;;4955681;29;20255;-65
2021/09/26 10:19:25;;;;;;;11.00;5.90;;;22.30;1.00;;;;;;4955259;29;20232;-66
2021/09/26 10:21:54;;;;;;;11.90;6.77;;;22.50;1.00;;;;;;4955064;29;20224;-66
2021/09/26 10:24:24;;;;;;;8.37;6.40;;;22.60;1.00;;;;;;4955587;29;20213;-68
2021/09/26 10:26:52;;;;;;;9.87;6.23;;;22.60;1.00;;;;;;4954368;29;20209;-68
2021/09/26 10:29:21;;;;;;;8.97;6.27;;;22.80;1.00;;;;;;4955141;29;20276;-68
2021/09/26 10:31:50;;;;;;;6.73;5.40;;;22.70;1.00;;;;;;4954331;29;20217;-65
2021/09/26 10:34:20;;;;;;;7.00;5.10;;;22.80;1.00;;;;;;4954318;29;20583;-65
2021/09/26 10:36:47;;;;;;;8.37;5.50;;;22.90;1.00;;;;;;4954748;29;20225;-67
2021/09/26 10:39:15;;;;;;;8.23;6.23;;;22.70;1.00;;;;;;4955103;29;20225;-66
2021/09/26 10:42:07;;;;;;;7.43;6.10;;;22.50;1.00;;;;;;4953846;29;20217;-66
2021/09/26 10:44:37;;;;;;;9.50;6.07;;;22.50;1.00;;;;;;4954467;29;20215;-65
2021/09/26 10:47:11;;;;;;;7.70;6.00;;;22.50;1.00;;;;;;4954936;29;20201;-65
2021/09/26 10:49:40;;;;;;;7.97;5.07;;;22.60;1.00;;;;;;4954697;29;20678;-67
2021/09/26 10:52:29;;;;;;;7.27;4.73;;;22.60;1.00;;;;;;4954887;29;20614;-67
2021/09/26 10:55:04;;;;;;;8.47;4.43;;;22.80;1.00;;;;;;4954552;29;20295;-66
2021/09/26 10:57:32;;;;;;;8.70;4.77;;;22.90;1.00;;;;;;4954739;29;20291;-67
2021/09/26 11:00:01;;;;;;;8.07;4.40;;;22.90;1.00;;;;;;4954399;29;20283;-66
2021/09/26 11:02:36;;;;;;;6.23;4.20;;;22.80;1.00;;;;;;4954644;28;20213;-66
2021/09/26 11:05:04;;;;;;;9.33;4.20;;;22.90;1.00;;;;;;4954198;29;20212;-65
2021/09/26 11:07:33;;;;;;;6.70;4.07;;;22.90;1.00;;;;;;4954516;29;20233;-65
2021/09/26 11:10:03;;;;;;;6.93;4.17;;;23.00;1.00;;;;;;4954004;29;20623;-64
2021/09/26 11:12:41;;;;;;;5.60;4.33;;;23.00;1.00;;;;;;4954648;29;20264;-65
2021/09/26 11:15:10;;;;;;;7.07;4.90;;;23.10;1.00;;;;;;4954006;29;20674;-65
2021/09/26 11:17:45;;;;;;;8.17;4.17;;;23.10;1.00;;;;;;4954482;29;20245;-65
2021/09/26 11:20:13;;;;;;;8.37;4.53;;;23.30;1.00;;;;;;4953546;29;20228;-65
2021/09/26 11:22:40;;;;;;;5.93;4.27;;;23.30;1.00;;;;;;4955152;29;20209;-65
2021/09/26 11:25:07;;;;;;;5.50;4.47;;;23.30;1.00;;;;;;4954166;29;20213;-65
2021/09/26 11:27:40;;;;;;;6.67;5.37;;;23.50;1.00;;;;;;4954337;29;20229;-66
2021/09/26 11:30:26;;;;;;;6.80;4.97;;;23.50;1.00;;;;;;4953719;29;20216;-66
2021/09/26 11:32:59;;;;;;;7.53;4.53;;;23.50;1.00;;;;;;4954027;29;20287;-65
2021/09/26 11:35:28;;;;;;;7.37;4.67;;;23.60;1.00;;;;;;4953680;29;20670;-65
2021/09/26 11:37:59;;;;;;;6.37;4.17;;;23.70;1.00;;;;;;4953812;29;20229;-67
2021/09/26 11:40:52;;;;;;;9.73;4.77;;;23.70;1.00;;;;;;4953619;29;20235;-68
2021/09/26 11:43:22;;;;;;;7.40;4.10;;;23.60;1.00;;;;;;4953981;29;20658;-67
2021/09/26 11:45:49;;;;;;;7.73;3.37;;;23.60;1.00;;;;;;4953773;29;20231;-68
2021/09/26 11:48:16;;;;;;;5.43;4.13;;;23.70;1.00;;;;;;4953927;29;20232;-66
2021/09/26 11:50:45;;;;;;;5.27;3.63;;;23.70;1.00;;;;;;4953545;29;20219;-67
2021/09/26 11:53:14;;;;;;;5.40;4.10;;;23.80;1.00;;;;;;4953898;29;20213;-68
2021/09/26 11:55:42;;;;;;;7.60;3.40;;;23.70;1.00;;;;;;4953401;29;20674;-66
2021/09/26 11:58:11;;;;;;;7.80;3.80;;;23.60;1.00;;;;;;4953649;29;20300;-64
2021/09/26 12:00:41;;;;;;;7.43;4.27;;;23.50;1.00;;;;;;4953253;29;20209;-64
2021/09/26 12:03:15;;;;;;;7.50;3.50;;;23.50;1.00;;;;;;4953963;29;20260;-63
2021/09/26 12:05:43;;;;;;;6.03;3.80;;;23.50;1.00;;;;;;4953298;29;20212;-64
2021/09/26 12:08:10;;;;;;;7.20;3.83;;;23.80;1.00;;;;;;4953566;29;20316;-64
2021/09/26 12:10:36;;;;;;;5.80;3.37;;;23.80;1.00;;;;;;4953141;29;20213;-64
2021/09/26 12:13:19;;;;;;;6.40;3.30;;;23.80;1.00;;;;;;4953778;28;20349;-64
2021/09/26 12:15:48;;;;;;;6.10;3.53;;;23.70;1.00;;;;;;4951335;29;20236;-69
2021/09/26 12:18:20;;;;;;;4.03;3.47;;;23.70;1.00;;;;;;4953425;29;20295;-65
2021/09/26 12:20:47;;;;;;;6.07;3.47;;;23.70;1.00;;;;;;4953084;29;20215;-63
2021/09/26 12:23:23;;;;;;;6.80;3.83;;;23.80;1.00;;;;;;4953721;29;20268;-64
2021/09/26 12:26:01;;;;;;;6.17;3.97;;;23.70;1.00;;;;;;4953261;29;20255;-64
2021/09/26 12:28:29;;;;;;;6.40;3.80;;;23.60;1.00;;;;;;4953444;29;20253;-67
2021/09/26 12:30:59;;;;;;;5.30;3.60;;;23.50;1.00;;;;;;4953174;29;20208;-64
2021/09/26 12:33:28;;;;;;;8.50;3.80;;;23.50;1.00;;;;;;4953791;29;20300;-64
2021/09/26 12:35:57;;;;;;;5.57;3.73;;;23.50;1.00;;;;;;4952977;29;20674;-64
2021/09/26 12:38:30;;;;;;;5.23;3.37;;;23.50;1.00;;;;;;4953377;29;20233;-64
2021/09/26 12:41:00;;;;;;;5.77;3.37;;;23.70;1.00;;;;;;4953013;29;20217;-64
2021/09/26 12:43:30;;;;;;;4.90;3.60;;;23.90;1.00;;;;;;4953302;29;20646;-64
2021/09/26 12:46:00;;;;;;;4.43;3.23;;;23.90;1.00;;;;;;4953167;29;20216;-64
2021/09/26 12:48:29;;;;;;;5.53;3.43;;;23.90;1.00;;;;;;4953739;29;20264;-64
2021/09/26 12:50:59;;;;;;;6.77;3.40;;;24.00;1.00;;;;;;4952893;29;20267;-64
2021/09/26 12:53:30;;;;;;;4.10;3.23;;;23.90;1.00;;;;;;4953415;29;20216;-64
2021/09/26 12:55:59;;;;;;;8.20;2.93;;;23.80;1.00;;;;;;4952946;29;20224;-64
2021/09/26 12:58:33;;;;;;;4.60;2.47;;;23.80;1.00;;;;;;4953045;29;20229;-64